Aérodrome :
LOGIN :

S'inscrire | Disclaimer

   EN    FR    IT 

 










Légende :    VFR   VFR Marginal   IFR   IFR Intensif   IFR Très Intensif
Visi : 
Plafond : 
>= 8 km
>= 3000ft
5 à 8 km
1000 à 3000 ft
1500m à 5 km
500 à 1000 ft
800 à 1500m
200 à 500 ft
< 800m
< 200 ft
Symboles :   Orages  Brouillard  Fortes neiges  Fortes précipitations  Vent > 20 kt
SIGMETs :   Divers  Orages  Givrage  Turbulence  Onde Orograph.  Cendres Volcan.







- Altitude de l'aérodrome : 1411 ft
- Code IATA : GVA


LSGG - Genève Cointrin

DERNIER METAR :
  • 180250Z AUTO VRB01KT 9999 -SN SCT036 BKN042 BKN060 01/M00 Q1016 TEMPO 4500 SHSN BKN010

METARs EXPIRÉS :
  • 180220Z AUTO VRB02KT 9999 FEW037 BKN045 01/M00 Q1016 RESN TEMPO 4500 SHSN BKN010
  • 180150Z AUTO 18002KT 9999 -SN FEW030 BKN045 BKN050 01/M00 Q1016 TEMPO 4500 SHSN BKN010
  • 180120Z AUTO VRB02KT 9999 FEW035 00/M01 Q1016 TEMPO 4500 SHSN
  • 180050Z AUTO VRB02KT 9999 FEW057 SCT085 00/M01 Q1016 NOSIG
  • 180020Z AUTO VRB02KT 9999 FEW070 00/M01 Q1016 RESN NOSIG

TAF TAF LSGG
Valide du 18 à 03h jusqu'au 19 à 09h UTC


180225Z 1803/1909 VRB03KT 9999 SCT030 TX04/1815Z TNM01/1806Z TNM03/1906Z
PROB30
TEMPO 1803/1805 4500 SHSN BKN010
ATIS : +41 22 417 40 81
Pas de NOTAMs connus pour ce terrain.



MET'MAP, la Météo Aéronautique d'un coup d'oeil ! - Copyright ORBIFLY Décembre 2007 - Disclaimer

ORBIFLY MET'MAP TEAM :

Programmation & Développement : Alexandra Zaïnal
Conception & Développement : Baudouin d'Aumeries
Co-Programmation & Développement : Marc-Olivier Méhu
Soutien technique & logistique : Manuel Goepfert

Contact : metmap@orbifly.com




SOURCES & CREDITS :

   NOAA